createdAt,value
2018-08-25T00:01:38.952Z,18.40
2018-08-25T00:04:05.691Z,18.40
2018-08-25T00:06:32.437Z,18.40
2018-08-25T00:08:59.208Z,18.40
2018-08-25T00:11:26.632Z,18.40
2018-08-25T00:13:53.520Z,18.30
2018-08-25T00:16:20.272Z,18.30
2018-08-25T00:18:46.959Z,18.10
2018-08-25T00:21:13.738Z,18.30
2018-08-25T00:23:40.704Z,18.30
2018-08-25T00:26:07.386Z,18.30
2018-08-25T00:28:34.060Z,18.20
2018-08-25T00:31:06.306Z,18.20
2018-08-25T00:33:33.057Z,18.10
2018-08-25T00:35:59.898Z,18.20
2018-08-25T00:38:26.593Z,18.20
2018-08-25T00:40:53.250Z,18.20
2018-08-25T00:43:19.905Z,18.20
2018-08-25T00:45:46.826Z,18.20
2018-08-25T00:48:15.172Z,18.10
2018-08-25T00:50:41.951Z,18.10
2018-08-25T00:53:09.268Z,18.10
2018-08-25T00:55:35.940Z,18.10
2018-08-25T00:58:02.606Z,18.10
2018-08-25T01:00:29.278Z,18.00
2018-08-25T01:02:55.940Z,18.00
2018-08-25T01:05:22.582Z,18.00
2018-08-25T01:07:49.229Z,18.00
2018-08-25T01:10:15.935Z,18.00
2018-08-25T01:12:42.716Z,18.00
2018-08-25T01:15:09.443Z,17.90
2018-08-25T01:17:36.391Z,17.90
2018-08-25T01:20:03.029Z,17.90
2018-08-25T01:22:29.791Z,17.90
2018-08-25T01:24:56.581Z,17.90
2018-08-25T01:27:23.405Z,17.90
2018-08-25T01:29:50.124Z,17.90
2018-08-25T01:32:16.799Z,17.80
2018-08-25T01:34:43.603Z,17.80
2018-08-25T01:37:11.196Z,17.80
2018-08-25T01:39:38.872Z,17.80
2018-08-25T01:42:05.540Z,17.80
2018-08-25T01:44:32.169Z,17.80
2018-08-25T01:46:58.988Z,17.70
2018-08-25T01:49:25.729Z,17.70
2018-08-25T01:51:52.406Z,17.70
2018-08-25T01:54:19.206Z,17.70
2018-08-25T01:56:46.126Z,17.70
2018-08-25T01:59:12.906Z,17.50
2018-08-25T02:01:39.623Z,17.70
2018-08-25T02:04:06.550Z,17.60
2018-08-25T02:06:33.332Z,17.60
2018-08-25T02:09:00.030Z,17.60
2018-08-25T02:11:26.704Z,17.60
2018-08-25T02:13:53.403Z,17.60
2018-08-25T02:16:20.159Z,17.60
2018-08-25T02:18:46.908Z,17.60
2018-08-25T02:21:13.586Z,17.50
2018-08-25T02:23:41.049Z,17.50
2018-08-25T02:26:07.694Z,17.50
2018-08-25T02:28:34.636Z,17.50
2018-08-25T02:31:01.330Z,17.50
2018-08-25T02:33:28.034Z,17.50
2018-08-25T02:35:54.686Z,17.50
2018-08-25T02:38:21.499Z,17.50
2018-08-25T02:40:48.188Z,17.40
2018-08-25T02:43:15.856Z,17.40
2018-08-25T02:45:42.913Z,17.40
2018-08-25T02:48:09.733Z,17.40
2018-08-25T02:50:37.087Z,17.40
2018-08-25T02:53:04.156Z,17.40
2018-08-25T02:55:30.907Z,17.40
2018-08-25T02:57:57.505Z,17.40
2018-08-25T03:00:24.170Z,17.40
2018-08-25T03:02:50.889Z,17.30
2018-08-25T03:05:17.815Z,17.30
2018-08-25T03:07:45.901Z,17.30
2018-08-25T03:10:12.596Z,17.30
2018-08-25T03:12:39.508Z,17.30
2018-08-25T03:15:06.314Z,17.30
2018-08-25T03:17:32.974Z,17.30
2018-08-25T03:19:59.743Z,17.30
2018-08-25T03:22:26.420Z,17.20
2018-08-25T03:24:53.059Z,17.00
2018-08-25T03:27:19.973Z,17.20
2018-08-25T03:29:46.913Z,17.20
2018-08-25T03:32:13.603Z,17.20
2018-08-25T03:34:40.269Z,17.20
2018-08-25T03:37:06.925Z,17.20
2018-08-25T03:39:33.635Z,17.20
2018-08-25T03:42:00.287Z,17.10
2018-08-25T03:44:27.073Z,17.10
2018-08-25T03:46:53.822Z,17.10
2018-08-25T03:49:20.532Z,17.10
2018-08-25T03:51:47.188Z,17.10
2018-08-25T03:54:13.974Z,17.10
2018-08-25T03:56:40.884Z,17.10
2018-08-25T03:59:07.610Z,17.10
2018-08-25T04:01:34.303Z,16.80
2018-08-25T04:04:00.995Z,17.00
2018-08-25T04:06:27.772Z,17.00
2018-08-25T04:08:54.514Z,17.00
2018-08-25T04:11:21.210Z,17.00
2018-08-25T04:13:47.892Z,17.00
2018-08-25T04:16:14.665Z,16.90
2018-08-25T04:18:41.360Z,17.00
2018-08-25T04:21:08.040Z,16.90
2018-08-25T04:23:34.776Z,16.90
2018-08-25T04:26:01.522Z,16.90
2018-08-25T04:28:28.329Z,16.90
2018-08-25T04:30:55.086Z,16.90
2018-08-25T04:33:21.826Z,16.90
2018-08-25T04:35:48.585Z,16.80
2018-08-25T04:38:15.924Z,16.90
2018-08-25T04:40:42.628Z,16.80
2018-08-25T04:43:09.406Z,16.80
2018-08-25T04:45:36.090Z,16.80
2018-08-25T04:48:03.458Z,16.80
2018-08-25T04:50:30.234Z,16.80
2018-08-25T04:52:57.071Z,16.70
2018-08-25T04:55:24.169Z,16.70
2018-08-25T04:57:50.871Z,16.80
2018-08-25T05:00:17.827Z,16.70
2018-08-25T05:02:46.177Z,16.70
2018-08-25T05:05:13.687Z,16.90
2018-08-25T05:07:40.805Z,16.70
2018-08-25T05:10:07.587Z,16.70
2018-08-25T05:12:34.345Z,16.70
2018-08-25T05:15:01.075Z,16.70
2018-08-25T05:17:27.863Z,16.70
2018-08-25T05:19:54.604Z,16.60
2018-08-25T05:22:21.366Z,16.60
2018-08-25T05:24:48.079Z,16.60
2018-08-25T05:27:14.835Z,16.60
2018-08-25T05:29:41.602Z,16.60
2018-08-25T05:32:08.549Z,16.60
2018-08-25T05:34:35.421Z,16.60
2018-08-25T05:37:02.151Z,16.60
2018-08-25T05:39:29.128Z,16.50
2018-08-25T05:41:57.159Z,16.50
2018-08-25T05:44:23.810Z,16.50
2018-08-25T05:46:50.753Z,16.50
2018-08-25T05:49:17.535Z,16.50
2018-08-25T05:51:44.261Z,16.50
2018-08-25T05:54:10.935Z,16.50
2018-08-25T05:56:37.836Z,16.50
2018-08-25T05:59:04.591Z,16.50
2018-08-25T06:01:31.445Z,16.40
2018-08-25T06:03:58.178Z,16.40
2018-08-25T06:06:24.966Z,16.40
2018-08-25T06:08:51.671Z,16.40
2018-08-25T06:11:18.467Z,16.40
2018-08-25T06:13:45.239Z,16.40
2018-08-25T06:16:11.958Z,16.40
2018-08-25T06:18:38.731Z,16.40
2018-08-25T06:21:05.406Z,16.40
2018-08-25T06:23:32.447Z,16.50
2018-08-25T06:25:59.228Z,16.50
2018-08-25T06:28:25.942Z,16.50
2018-08-25T06:30:52.652Z,16.50
2018-08-25T06:33:19.405Z,16.60
2018-08-25T06:35:46.262Z,16.50
2018-08-25T06:38:13.246Z,16.50
2018-08-25T06:40:39.972Z,16.60
2018-08-25T06:43:06.830Z,16.50
2018-08-25T06:45:33.640Z,16.50
2018-08-25T06:48:00.544Z,16.60
2018-08-25T06:50:27.358Z,16.60
2018-08-25T06:52:54.211Z,16.60
2018-08-25T06:55:20.940Z,16.60
2018-08-25T06:57:47.691Z,16.60
2018-08-25T07:00:14.446Z,16.60
2018-08-25T07:02:41.223Z,16.60
2018-08-25T07:05:07.889Z,16.60
2018-08-25T07:07:35.159Z,16.60
2018-08-25T07:10:01.944Z,16.60
2018-08-25T07:12:28.708Z,16.60
2018-08-25T07:14:55.506Z,16.60
2018-08-25T07:17:22.369Z,16.60
2018-08-25T07:19:49.504Z,16.60
2018-08-25T07:22:16.302Z,16.60
2018-08-25T07:24:43.192Z,16.60
2018-08-25T07:27:10.017Z,16.60
2018-08-25T07:29:36.883Z,16.70
2018-08-25T07:32:03.674Z,16.70
2018-08-25T07:34:30.378Z,16.70
2018-08-25T07:36:57.184Z,16.80
2018-08-25T07:39:23.915Z,16.70
2018-08-25T07:41:50.651Z,16.80
2018-08-25T07:44:17.430Z,16.80
2018-08-25T07:46:44.139Z,16.80
2018-08-25T07:49:10.872Z,16.80
2018-08-25T07:51:37.644Z,16.90
2018-08-25T07:54:04.649Z,16.90
2018-08-25T07:56:31.393Z,17.00
2018-08-25T07:58:58.157Z,16.90
2018-08-25T08:01:24.968Z,17.00
2018-08-25T08:03:51.689Z,17.00
2018-08-25T08:06:18.495Z,17.00
2018-08-25T08:08:45.281Z,17.00
2018-08-25T08:11:12.051Z,17.10
2018-08-25T08:13:38.846Z,17.10
2018-08-25T08:16:05.720Z,17.10
2018-08-25T08:18:32.535Z,17.20
2018-08-25T08:20:59.272Z,17.20
2018-08-25T08:23:25.960Z,17.20
2018-08-25T08:25:52.728Z,17.30
2018-08-25T08:28:19.578Z,17.30
2018-08-25T08:30:46.352Z,17.30
2018-08-25T08:33:13.187Z,17.40
2018-08-25T08:35:39.924Z,17.40
2018-08-25T08:38:06.650Z,17.40
2018-08-25T08:40:33.381Z,17.50
2018-08-25T08:43:00.146Z,17.50
2018-08-25T08:45:26.961Z,17.50
2018-08-25T08:47:53.642Z,17.60
2018-08-25T08:50:20.381Z,17.60
2018-08-25T08:52:47.069Z,17.60
2018-08-25T08:55:13.806Z,17.70
2018-08-25T08:57:40.561Z,17.70
2018-08-25T09:00:07.506Z,17.70
2018-08-25T09:02:34.213Z,17.70
2018-08-25T09:05:00.915Z,17.80
2018-08-25T09:07:27.915Z,17.80
2018-08-25T09:09:54.631Z,17.80
2018-08-25T09:12:21.325Z,17.90
2018-08-25T09:14:48.049Z,17.90
2018-08-25T09:17:14.809Z,17.90
2018-08-25T09:19:41.637Z,17.90
2018-08-25T09:22:08.402Z,18.00
2018-08-25T09:24:35.184Z,18.00
2018-08-25T09:27:02.039Z,18.00
2018-08-25T09:29:28.786Z,18.10
2018-08-25T09:31:55.648Z,18.10
2018-08-25T09:34:22.419Z,18.10
2018-08-25T09:36:49.345Z,18.10
2018-08-25T09:39:16.107Z,18.20
2018-08-25T09:41:42.862Z,18.20
2018-08-25T09:44:09.639Z,18.20
2018-08-25T09:46:36.362Z,18.30
2018-08-25T09:49:03.117Z,18.30
2018-08-25T09:51:29.764Z,18.30
2018-08-25T09:53:56.489Z,18.30
2018-08-25T09:56:23.304Z,18.70
2018-08-25T09:58:50.137Z,18.40
2018-08-25T10:01:22.458Z,18.40
2018-08-25T10:03:49.379Z,18.50
2018-08-25T10:06:16.201Z,18.50
2018-08-25T10:08:42.927Z,18.50
2018-08-25T10:11:09.661Z,18.50
2018-08-25T10:13:36.551Z,18.60
2018-08-25T10:16:03.383Z,18.60
2018-08-25T10:18:30.109Z,18.70
2018-08-25T10:20:56.817Z,18.70
2018-08-25T10:23:23.596Z,18.70
2018-08-25T10:25:50.404Z,18.80
2018-08-25T10:28:17.246Z,18.80
2018-08-25T10:30:44.031Z,18.80
2018-08-25T10:33:10.875Z,18.80
2018-08-25T10:35:37.728Z,18.90
2018-08-25T10:38:04.516Z,18.90
2018-08-25T10:40:31.260Z,18.90
2018-08-25T10:42:58.020Z,19.00
2018-08-25T10:45:25.033Z,19.00
2018-08-25T10:47:51.898Z,19.00
2018-08-25T10:50:18.661Z,19.00
2018-08-25T10:52:45.484Z,19.10
2018-08-25T10:55:12.277Z,19.10
2018-08-25T10:57:39.001Z,19.10
2018-08-25T11:00:05.927Z,19.20
2018-08-25T11:02:32.714Z,19.20
2018-08-25T11:04:59.577Z,19.00
2018-08-25T11:07:26.313Z,19.20
2018-08-25T11:09:53.794Z,19.30
2018-08-25T11:12:20.891Z,19.30
2018-08-25T11:14:47.616Z,19.30
2018-08-25T11:17:14.681Z,19.40
2018-08-25T11:19:41.356Z,19.40
2018-08-25T11:22:08.143Z,19.40
2018-08-25T11:24:34.960Z,19.40
2018-08-25T11:27:01.662Z,19.40
2018-08-25T11:29:28.492Z,19.50
2018-08-25T11:31:55.459Z,19.50
2018-08-25T11:34:22.327Z,19.50
2018-08-25T11:36:49.158Z,19.60
2018-08-25T11:39:15.905Z,19.60
2018-08-25T11:41:42.725Z,19.60
2018-08-25T11:44:09.407Z,19.60
2018-08-25T11:46:36.264Z,19.70
2018-08-25T11:49:02.923Z,19.70
2018-08-25T11:51:29.641Z,19.70
2018-08-25T11:53:56.461Z,19.70
2018-08-25T11:56:23.255Z,19.80
2018-08-25T11:58:49.981Z,19.80
2018-08-25T12:01:16.925Z,19.80
2018-08-25T12:03:43.707Z,19.80
2018-08-25T12:06:10.593Z,19.80
2018-08-25T12:08:37.370Z,19.90
2018-08-25T12:11:04.190Z,19.90
2018-08-25T12:13:30.929Z,19.90
2018-08-25T12:15:57.674Z,19.90
2018-08-25T12:18:24.404Z,20.00
2018-08-25T12:20:51.185Z,20.00
2018-08-25T12:23:17.902Z,20.00
2018-08-25T12:25:44.721Z,19.90
2018-08-25T12:28:11.436Z,20.10
2018-08-25T12:30:38.328Z,20.00
2018-08-25T12:33:05.306Z,20.10
2018-08-25T12:35:32.243Z,20.20
2018-08-25T12:37:59.008Z,20.10
2018-08-25T12:40:25.705Z,20.10
2018-08-25T12:42:52.481Z,20.20
2018-08-25T12:45:19.519Z,20.20
2018-08-25T12:47:46.285Z,20.20
2018-08-25T12:50:13.204Z,20.20
2018-08-25T12:52:39.965Z,20.30
2018-08-25T12:55:06.713Z,20.30
2018-08-25T12:57:33.472Z,20.30
2018-08-25T13:00:00.188Z,20.40
2018-08-25T13:02:27.060Z,20.40
2018-08-25T13:04:53.825Z,20.40
2018-08-25T13:07:20.633Z,20.40
2018-08-25T13:09:47.394Z,20.30
2018-08-25T13:12:14.191Z,20.50
2018-08-25T13:14:41.205Z,20.50
2018-08-25T13:17:08.013Z,20.50
2018-08-25T13:19:35.026Z,20.60
2018-08-25T13:22:01.945Z,20.60
2018-08-25T13:24:28.644Z,20.60
2018-08-25T13:26:55.455Z,20.60
2018-08-25T13:29:22.228Z,20.60
2018-08-25T13:31:48.937Z,20.60
2018-08-25T13:34:15.706Z,20.60
2018-08-25T13:36:42.587Z,20.70
2018-08-25T13:39:10.539Z,20.70
2018-08-25T13:41:37.837Z,20.70
2018-08-25T13:44:04.829Z,20.70
2018-08-25T13:46:31.557Z,20.70
2018-08-25T13:48:58.443Z,20.80
2018-08-25T13:51:25.185Z,20.80
2018-08-25T13:53:52.004Z,20.80
2018-08-25T13:56:18.761Z,20.80
2018-08-25T13:58:45.537Z,20.80
2018-08-25T14:01:12.316Z,20.80
2018-08-25T14:03:39.096Z,20.80
2018-08-25T14:06:05.861Z,20.90
2018-08-25T14:08:32.607Z,20.90
2018-08-25T14:10:59.407Z,20.90
2018-08-25T14:13:26.357Z,20.90
2018-08-25T14:15:54.168Z,20.90
2018-08-25T14:18:20.871Z,20.90
2018-08-25T14:20:47.558Z,20.90
2018-08-25T14:23:14.291Z,20.90
2018-08-25T14:25:41.002Z,20.80
2018-08-25T14:28:07.767Z,20.90
2018-08-25T14:30:34.463Z,21.00
2018-08-25T14:33:01.245Z,21.00
2018-08-25T14:35:28.009Z,21.00
2018-08-25T14:37:54.847Z,21.00
2018-08-25T14:40:21.622Z,21.00
2018-08-25T14:42:48.427Z,21.00
2018-08-25T14:45:15.146Z,21.00
2018-08-25T14:47:41.876Z,21.00
2018-08-25T14:50:08.600Z,21.00
2018-08-25T14:52:35.388Z,21.00
2018-08-25T14:55:02.158Z,21.00
2018-08-25T14:57:28.950Z,21.00
2018-08-25T14:59:55.670Z,21.00
2018-08-25T15:02:22.482Z,21.00
2018-08-25T15:04:49.265Z,21.00
2018-08-25T15:07:16.088Z,21.00
2018-08-25T15:09:42.849Z,21.00
2018-08-25T15:12:09.768Z,21.00
2018-08-25T15:14:36.566Z,21.10
2018-08-25T15:17:03.451Z,21.00
2018-08-25T15:19:30.152Z,21.00
2018-08-25T15:21:56.925Z,21.00
2018-08-25T15:24:23.713Z,21.00
2018-08-25T15:26:50.494Z,21.00
2018-08-25T15:29:17.299Z,21.00
2018-08-25T15:31:44.018Z,21.00
2018-08-25T15:34:10.821Z,21.00
2018-08-25T15:36:37.567Z,21.10
2018-08-25T15:39:04.399Z,21.00
2018-08-25T15:41:31.130Z,21.00
2018-08-25T15:43:57.890Z,21.00
2018-08-25T15:46:24.705Z,21.00
2018-08-25T15:48:51.513Z,21.10
2018-08-25T15:51:18.319Z,21.00
2018-08-25T15:53:45.023Z,21.00
2018-08-25T15:56:11.879Z,21.00
2018-08-25T15:58:38.700Z,21.00
2018-08-25T16:01:05.422Z,21.00
2018-08-25T16:03:32.252Z,21.00
2018-08-25T16:05:59.050Z,21.00
2018-08-25T16:08:25.744Z,21.00
2018-08-25T16:10:52.506Z,21.00
2018-08-25T16:13:19.260Z,21.00
2018-08-25T16:15:46.112Z,21.10
2018-08-25T16:18:12.880Z,21.10
2018-08-25T16:20:39.653Z,21.10
2018-08-25T16:23:06.391Z,21.10
2018-08-25T16:25:33.199Z,21.10
2018-08-25T16:27:59.930Z,21.10
2018-08-25T16:30:26.866Z,21.10
2018-08-25T16:32:53.732Z,21.10
2018-08-25T16:35:20.492Z,21.10
2018-08-25T16:37:47.338Z,21.10
2018-08-25T16:40:14.452Z,21.10
2018-08-25T16:42:41.318Z,21.20
2018-08-25T16:45:08.047Z,21.10
2018-08-25T16:47:34.897Z,21.10
2018-08-25T16:50:01.860Z,21.10
2018-08-25T16:52:28.951Z,21.10
2018-08-25T16:54:55.804Z,21.10
2018-08-25T16:57:23.088Z,21.10
2018-08-25T16:59:49.842Z,21.10
2018-08-25T17:02:16.888Z,21.10
2018-08-25T17:04:44.955Z,21.10
2018-08-25T17:07:11.750Z,21.10
2018-08-25T17:09:38.697Z,21.10
2018-08-25T17:12:06.423Z,21.00
2018-08-25T17:14:33.627Z,21.00
2018-08-25T17:17:00.346Z,21.10
2018-08-25T17:19:27.323Z,21.00
2018-08-25T17:21:54.121Z,21.00
2018-08-25T17:24:21.195Z,21.00
2018-08-25T17:26:48.021Z,21.00
2018-08-25T17:29:14.786Z,20.90
2018-08-25T17:31:41.843Z,20.90
2018-08-25T17:34:08.563Z,20.90
2018-08-25T17:36:35.949Z,20.90
2018-08-25T17:39:03.292Z,20.80
2018-08-25T17:41:30.054Z,20.80
2018-08-25T17:43:57.037Z,20.80
2018-08-25T17:46:24.006Z,20.80
2018-08-25T17:48:50.872Z,20.80
2018-08-25T17:51:17.712Z,20.70
2018-08-25T17:53:44.552Z,20.70
2018-08-25T17:56:11.493Z,20.60
2018-08-25T17:58:38.457Z,20.60
2018-08-25T18:01:05.457Z,20.60
2018-08-25T18:03:32.199Z,20.60
2018-08-25T18:05:59.197Z,20.60
2018-08-25T18:08:26.133Z,20.50
2018-08-25T18:10:52.979Z,20.50
2018-08-25T18:13:19.710Z,20.40
2018-08-25T18:15:46.971Z,20.40
2018-08-25T18:18:13.865Z,20.40
2018-08-25T18:20:40.569Z,20.40
2018-08-25T18:23:07.355Z,20.30
2018-08-25T18:25:34.849Z,20.30
2018-08-25T18:28:01.576Z,20.30
2018-08-25T18:30:28.962Z,20.20
2018-08-25T18:32:55.790Z,20.20
2018-08-25T18:35:23.518Z,20.20
2018-08-25T18:37:50.266Z,19.90
2018-08-25T18:40:17.168Z,20.10
2018-08-25T18:42:44.768Z,20.10
2018-08-25T18:45:11.523Z,20.10
2018-08-25T18:47:38.576Z,20.00
2018-08-25T18:50:05.272Z,20.00
2018-08-25T18:52:32.152Z,20.00
2018-08-25T18:54:59.083Z,19.90
2018-08-25T18:57:25.851Z,19.90
2018-08-25T18:59:52.537Z,19.90
2018-08-25T19:02:19.279Z,19.80
2018-08-25T19:04:46.185Z,19.80
2018-08-25T19:07:13.037Z,19.70
2018-08-25T19:09:39.811Z,19.70
2018-08-25T19:12:06.619Z,19.70
2018-08-25T19:14:33.527Z,19.70
2018-08-25T19:17:00.213Z,19.60
2018-08-25T19:19:26.939Z,19.60
2018-08-25T19:21:53.653Z,19.50
2018-08-25T19:24:20.973Z,19.50
2018-08-25T19:26:47.814Z,19.50
2018-08-25T19:29:14.653Z,19.40
2018-08-25T19:31:41.626Z,19.40
2018-08-25T19:34:08.358Z,19.40
2018-08-25T19:36:35.207Z,19.30
2018-08-25T19:39:02.073Z,19.30
2018-08-25T19:41:28.979Z,19.20
2018-08-25T19:43:55.840Z,19.20
2018-08-25T19:46:22.684Z,19.20
2018-08-25T19:48:49.551Z,19.10
2018-08-25T19:51:16.409Z,19.10
2018-08-25T19:53:43.420Z,19.00
2018-08-25T19:56:10.374Z,19.00
2018-08-25T19:58:37.120Z,19.00
2018-08-25T20:01:03.909Z,18.90
2018-08-25T20:03:30.680Z,18.90
2018-08-25T20:05:57.389Z,18.90
2018-08-25T20:08:24.273Z,18.80
2018-08-25T20:10:51.148Z,18.80
2018-08-25T20:13:17.991Z,18.70
2018-08-25T20:15:44.954Z,18.70
2018-08-25T20:18:11.744Z,18.70
2018-08-25T20:20:38.448Z,18.70
2018-08-25T20:23:05.729Z,18.60
2018-08-25T20:25:32.710Z,18.60
2018-08-25T20:27:59.650Z,18.60
2018-08-25T20:30:26.495Z,18.50
2018-08-25T20:32:53.734Z,18.50
2018-08-25T20:35:20.614Z,18.50
2018-08-25T20:37:47.300Z,18.40
2018-08-25T20:40:14.010Z,18.40
2018-08-25T20:42:40.693Z,18.40
2018-08-25T20:45:07.604Z,18.30
2018-08-25T20:47:34.309Z,18.30
2018-08-25T20:50:01.053Z,18.30
2018-08-25T20:52:27.701Z,18.30
2018-08-25T20:54:54.384Z,18.20
2018-08-25T20:57:21.146Z,18.20
2018-08-25T20:59:48.136Z,18.20
2018-08-25T21:02:14.806Z,18.20
2018-08-25T21:04:41.562Z,18.10
2018-08-25T21:07:08.297Z,18.10
2018-08-25T21:09:34.967Z,18.10
2018-08-25T21:12:02.446Z,18.00
2018-08-25T21:14:29.236Z,18.00
2018-08-25T21:16:56.068Z,18.00
2018-08-25T21:19:22.758Z,18.00
2018-08-25T21:21:49.674Z,18.00
2018-08-25T21:24:16.519Z,18.00
2018-08-25T21:26:43.476Z,17.90
2018-08-25T21:29:10.134Z,17.90
2018-08-25T21:31:36.827Z,17.90
2018-08-25T21:34:03.701Z,17.80
2018-08-25T21:36:30.537Z,17.90
2018-08-25T21:38:57.897Z,17.80
2018-08-25T21:41:24.597Z,17.80
2018-08-25T21:43:51.303Z,17.70
2018-08-25T21:46:18.207Z,17.80
2018-08-25T21:48:45.011Z,17.70
2018-08-25T21:51:11.873Z,17.70
2018-08-25T21:53:38.670Z,17.70
2018-08-25T21:56:05.315Z,17.70
2018-08-25T21:58:32.181Z,17.70
2018-08-25T22:00:59.669Z,17.70
2018-08-25T22:03:27.815Z,17.60
2018-08-25T22:05:55.721Z,17.60
2018-08-25T22:08:22.779Z,17.60
2018-08-25T22:10:50.092Z,17.60
2018-08-25T22:13:16.837Z,17.50
2018-08-25T22:15:44.228Z,17.50
2018-08-25T22:18:10.944Z,17.50
2018-08-25T22:20:38.076Z,17.50
2018-08-25T22:23:05.301Z,17.50
2018-08-25T22:25:32.150Z,17.50
2018-08-25T22:27:58.920Z,17.40
2018-08-25T22:30:25.633Z,17.40
2018-08-25T22:32:52.303Z,17.40
2018-08-25T22:35:18.991Z,17.40
2018-08-25T22:37:45.763Z,17.40
2018-08-25T22:40:12.506Z,17.40
2018-08-25T22:42:39.231Z,17.40
2018-08-25T22:45:05.918Z,17.30
2018-08-25T22:47:32.583Z,16.90
2018-08-25T22:49:59.398Z,17.30
2018-08-25T22:52:31.781Z,17.30
2018-08-25T22:54:58.710Z,17.20
2018-08-25T22:57:25.604Z,17.20
2018-08-25T22:59:52.340Z,17.20
2018-08-25T23:02:19.218Z,17.20
2018-08-25T23:04:46.808Z,17.20
2018-08-25T23:07:14.473Z,17.20
2018-08-25T23:09:41.226Z,17.20
2018-08-25T23:12:07.908Z,17.10
2018-08-25T23:14:34.638Z,17.10
2018-08-25T23:17:01.378Z,17.10
2018-08-25T23:19:28.159Z,17.10
2018-08-25T23:21:54.853Z,17.10
2018-08-25T23:24:21.522Z,17.00
2018-08-25T23:26:48.316Z,17.00
2018-08-25T23:29:15.691Z,17.00
2018-08-25T23:31:42.582Z,17.00
2018-08-25T23:34:09.599Z,17.00
2018-08-25T23:36:36.360Z,17.00
2018-08-25T23:39:03.399Z,16.90
2018-08-25T23:41:30.311Z,16.90
2018-08-25T23:43:57.091Z,16.90
2018-08-25T23:46:23.776Z,16.90
2018-08-25T23:48:50.424Z,16.90
2018-08-25T23:51:17.107Z,16.80
2018-08-25T23:53:44.447Z,16.80
2018-08-25T23:56:11.216Z,16.80
2018-08-25T23:58:38.009Z,16.80
